Time;durP1;ratioP1;P1;durP2;ratioP2;P2;SDS_P1;SDS_P2;PMS_P1;PMS_P2;Temp;Humidity;BMP_temperature;BMP_pressure;BME280_temperature;BME280_humidity;BME280_pressure;Samples;Min_cycle;Max_cycle;Signal;HPM_P1;HPM_P2
2022/04/21 00:00:18;;;;;;;22.63;14.43;;;;;;;-0.27;90.23;93359.97;5092348;28;20062;-38
2022/04/21 00:02:44;;;;;;;30.30;17.80;;;;;;;-0.29;90.44;93364.38;5092114;28;20039;-38
2022/04/21 00:05:11;;;;;;;24.75;15.10;;;;;;;-0.23;90.43;93359.72;5091981;28;20020;-37
2022/04/21 00:07:37;;;;;;;25.58;15.05;;;;;;;-0.29;90.46;93367.09;5092051;28;20031;-37
2022/04/21 00:10:04;;;;;;;21.52;13.48;;;;;;;-0.35;90.17;93337.22;5091894;28;20031;-37
2022/04/21 00:12:29;;;;;;;38.75;14.88;;;;;;;-0.45;90.19;93333.16;5092738;28;20420;-38
2022/04/21 00:14:55;;;;;;;22.20;13.93;;;;;;;-0.29;90.49;93353.53;5094760;28;20123;-37
2022/04/21 00:17:20;;;;;;;21.67;12.77;;;;;;;-0.18;89.86;93356.31;5092135;28;20485;-37
2022/04/21 00:19:45;;;;;;;18.10;12.55;;;;;;;-0.19;89.36;93352.84;5091741;28;20051;-37
2022/04/21 00:24:55;;;;;;;20.83;13.57;;;;;;;-0.21;89.08;93358.03;5091847;28;20570;-37
2022/04/21 00:27:20;;;;;;;18.50;12.50;;;;;;;-0.17;88.47;93355.84;5090986;28;20032;-38
2022/04/21 00:29:46;;;;;;;18.33;12.38;;;;;;;-0.27;88.54;93359.22;5091607;28;20039;-37
2022/04/21 00:32:12;;;;;;;17.05;11.52;;;;;;;-0.28;88.62;93361.16;5091431;28;20032;-37
2022/04/21 00:34:37;;;;;;;18.65;12.80;;;;;;;-0.34;88.89;93370.47;5091770;28;20478;-37
2022/04/21 00:37:03;;;;;;;19.55;12.13;;;;;;;-0.60;88.91;93343.38;5091797;28;20024;-38
2022/04/21 00:39:32;;;;;;;16.70;10.90;;;;;;;-0.38;89.11;93378.09;5091298;28;20030;-37
2022/04/21 00:42:02;;;;;;;17.00;11.23;;;;;;;-0.46;89.22;93377.78;5091693;28;20459;-37
2022/04/21 00:44:28;;;;;;;15.68;10.98;;;;;;;-0.56;89.56;93379.16;5091654;28;20101;-37
2022/04/21 00:46:55;;;;;;;17.00;11.98;;;;;;;-0.61;89.58;93379.88;5091218;28;20078;-37
2022/04/21 00:49:21;;;;;;;19.17;14.15;;;;;;;-0.68;89.47;93371.41;5091525;28;20103;-37
2022/04/21 00:51:47;;;;;;;21.90;14.15;;;;;;;-0.66;89.29;93360.81;5098558;28;20466;-37
2022/04/21 00:54:13;;;;;;;19.20;12.23;;;;;;;-0.55;88.45;93375.25;5110654;28;20028;-37
2022/04/21 00:56:40;;;;;;;16.40;11.35;;;;;;;-0.63;88.60;93376.91;5111424;28;20046;-37
2022/04/21 00:59:06;;;;;;;19.67;13.50;;;;;;;-0.86;88.80;93377.88;5110441;28;20088;-37
2022/04/21 01:04:16;;;;;;;17.73;12.48;;;;;;;-0.94;90.08;93384.94;5111650;28;20096;-37
2022/04/21 01:06:41;;;;;;;15.57;11.02;;;;;;;-0.95;90.01;93386.16;5110126;28;20032;-37
2022/04/21 01:09:09;;;;;;;19.52;12.13;;;;;;;-1.16;90.19;93390.84;5110929;28;20099;-38
2022/04/21 01:11:35;;;;;;;20.60;13.43;;;;;;;-1.15;90.28;93386.19;5111134;28;20070;-37
2022/04/21 01:14:00;;;;;;;21.40;13.25;;;;;;;-1.16;90.33;93380.03;5097466;28;20149;-37
2022/04/21 01:16:25;;;;;;;19.88;12.60;;;;;;;-1.08;89.98;93385.75;5089529;28;20127;-37
2022/04/21 01:18:52;;;;;;;18.13;11.52;;;;;;;-1.03;89.71;93387.78;5090672;28;20027;-37
2022/04/21 01:21:17;;;;;;;49.28;26.90;;;;;;;-0.97;89.66;93378.50;5089818;28;20035;-37
2022/04/21 01:23:42;;;;;;;59.08;27.73;;;;;;;-0.94;89.44;93379.53;5091044;28;20477;-38
2022/04/21 01:26:08;;;;;;;51.47;27.17;;;;;;;-0.91;89.81;93378.59;5090572;28;20027;-38
2022/04/21 01:28:34;;;;;;;46.97;26.20;;;;;;;-0.98;89.22;93384.41;5089742;28;20115;-38
2022/04/21 01:30:59;;;;;;;46.33;22.98;;;;;;;-0.99;89.30;93380.94;5089378;28;20055;-37
2022/04/21 01:33:25;;;;;;;37.67;21.52;;;;;;;-0.87;89.71;93377.13;5090864;28;20020;-38
2022/04/21 01:35:51;;;;;;;33.65;21.17;;;;;;;-0.89;88.80;93376.13;5090496;28;20481;-38
2022/04/21 01:41:09;;;;;;;36.28;19.95;;;;;;;-1.03;88.86;93368.81;5090682;28;20089;-37
2022/04/21 01:43:36;;;;;;;34.42;20.85;;;;;;;-1.13;88.68;93357.41;5090865;28;20437;-38
2022/04/21 01:46:02;;;;;;;38.78;20.83;;;;;;;-1.12;88.54;93366.25;5090583;28;20032;-38
2022/04/21 01:48:28;;;;;;;36.10;21.50;;;;;;;-1.17;88.42;93350.72;5102444;28;20081;-38
2022/04/21 01:50:53;;;;;;;34.70;19.75;;;;;;;-1.28;88.70;93342.44;5110613;28;20028;-38
2022/04/21 01:53:19;;;;;;;31.52;18.25;;;;;;;-1.22;88.90;93348.66;5110881;28;20030;-37
2022/04/21 01:55:44;;;;;;;35.17;19.42;;;;;;;-1.25;88.72;93338.78;5110671;28;20063;-38
2022/04/21 01:58:10;;;;;;;30.52;18.23;;;;;;;-1.25;88.63;93333.34;5110849;28;20059;-38
2022/04/21 02:00:35;;;;;;;33.47;17.48;;;;;;;-1.33;88.16;93332.28;5110502;28;20089;-38
2022/04/21 02:03:01;;;;;;;27.83;15.98;;;;;;;-1.17;88.14;93339.88;5110505;28;20028;-38
2022/04/21 02:05:26;;;;;;;26.17;16.95;;;;;;;-1.33;87.84;93324.91;5110519;28;20035;-38
2022/04/21 02:07:52;;;;;;;24.10;14.95;;;;;;;-1.44;88.10;93330.19;5110805;28;20031;-38
2022/04/21 02:10:19;;;;;;;27.30;16.02;;;;;;;-1.31;88.09;93321.72;5110416;28;20030;-38
2022/04/21 02:12:45;;;;;;;24.05;14.43;;;;;;;-1.31;87.41;93316.31;5108107;28;20031;-38
2022/04/21 02:15:11;;;;;;;26.00;15.02;;;;;;;-1.34;87.63;93317.28;5089565;28;20113;-38
2022/04/21 02:17:37;;;;;;;24.38;14.25;;;;;;;-1.36;87.53;93320.44;5090088;28;20436;-38
2022/04/21 02:20:05;;;;;;;20.85;12.88;;;;;;;-1.27;87.25;93314.13;5089940;28;20024;-38
2022/04/21 02:22:31;;;;;;;22.67;13.38;;;;;;;-1.26;87.01;93318.34;5090280;28;20433;-38
2022/04/21 02:24:56;;;;;;;21.23;12.85;;;;;;;-1.26;86.79;93318.34;5090297;28;20032;-38
2022/04/21 02:27:22;;;;;;;21.33;13.85;;;;;;;-1.26;86.43;93326.47;5089956;28;20557;-38
2022/04/21 02:29:48;;;;;;;21.70;13.77;;;;;;;-1.28;86.95;93326.19;5090227;28;20016;-38
2022/04/21 02:32:13;;;;;;;23.92;13.32;;;;;;;-1.46;86.89;93323.78;5090186;28;20118;-38
2022/04/21 02:34:39;;;;;;;26.30;14.82;;;;;;;-1.51;87.36;93314.34;5090193;28;20077;-38
2022/04/21 02:37:04;;;;;;;22.00;13.52;;;;;;;-1.73;87.82;93306.72;5090260;28;20051;-37
2022/04/21 02:39:30;;;;;;;26.98;14.80;;;;;;;-1.75;88.11;93322.69;5090078;28;20508;-37
2022/04/21 02:41:55;;;;;;;28.42;15.07;;;;;;;-1.81;88.62;93327.28;5090186;28;20508;-38
2022/04/21 02:44:21;;;;;;;25.73;14.48;;;;;;;-1.84;88.86;93319.38;5099005;28;20035;-38
2022/04/21 02:46:46;;;;;;;27.08;15.00;;;;;;;-2.02;89.09;93300.69;5110426;28;20034;-37
2022/04/21 02:49:12;;;;;;;20.98;12.77;;;;;;;-1.67;90.09;93320.31;5109250;28;20069;-37
2022/04/21 02:51:37;;;;;;;23.85;15.00;;;;;;;-1.61;89.66;93330.00;5112129;28;20553;-37
2022/04/21 02:59:32;;;;;;;22.95;13.25;;;;;;;-1.65;88.38;93340.28;5113687;28;20445;-37
2022/04/21 03:01:57;;;;;;;35.40;18.33;;;;;;;-1.66;88.52;93338.03;5113746;28;20114;-37
2022/04/21 03:04:23;;;;;;;33.33;18.63;;;;;;;-1.62;88.25;93336.63;5113637;28;20084;-37
2022/04/21 03:06:48;;;;;;;33.80;20.02;;;;;;;-1.62;87.78;93333.91;5113908;28;20027;-37
2022/04/21 03:09:14;;;;;;;31.63;17.55;;;;;;;-1.64;87.76;93338.31;5113915;28;20019;-37
2022/04/21 03:11:39;;;;;;;34.60;19.15;;;;;;;-1.72;87.93;93343.41;5113472;28;20465;-37
2022/04/21 03:14:05;;;;;;;31.48;17.52;;;;;;;-1.76;87.61;93342.84;5109390;27;20031;-37
2022/04/21 03:16:30;;;;;;;24.05;15.00;;;;;;;-1.71;87.24;93346.84;5113276;27;20126;-38
2022/04/21 03:18:55;;;;;;;43.45;23.45;;;;;;;-1.67;86.59;93348.13;5113353;28;20059;-37
2022/04/21 03:24:20;;;;;;;57.47;26.90;;;;;;;-1.68;86.47;93343.94;5113390;28;20038;-37
2022/04/21 03:26:46;;;;;;;45.72;24.92;;;;;;;-1.68;87.32;93352.06;5113303;27;20027;-37
2022/04/21 03:29:12;;;;;;;47.78;26.20;;;;;;;-1.63;87.41;93348.69;5113466;28;20024;-37
2022/04/21 03:31:37;;;;;;;39.90;23.67;;;;;;;-1.71;88.10;93349.56;5113477;28;20028;-37
2022/04/21 03:34:05;;;;;;;38.78;22.17;;;;;;;-1.71;88.62;93344.88;5113148;28;20416;-37
2022/04/21 03:36:31;;;;;;;81.22;43.22;;;;;;;-1.72;88.67;93348.81;5113426;28;20612;-37
2022/04/21 03:38:57;;;;;;;120.22;50.00;;;;;;;-1.79;89.18;93351.16;5113274;28;20106;-37
2022/04/21 03:41:22;;;;;;;85.82;46.78;;;;;;;-1.65;89.65;93351.13;5097141;27;20043;-37
2022/04/21 03:43:48;;;;;;;66.05;35.10;;;;;;;-1.49;89.76;93357.22;5092863;28;20016;-37
2022/04/21 03:46:13;;;;;;;60.95;31.15;;;;;;;-1.42;90.27;93354.84;5092522;28;20551;-37
2022/04/21 03:48:39;;;;;;;50.47;25.45;;;;;;;-1.25;90.21;93353.06;5092475;28;20054;-37
2022/04/21 03:51:04;;;;;;;51.25;26.10;;;;;;;-1.12;90.36;93352.72;5092426;28;20028;-37
2022/04/21 03:53:30;;;;;;;28.73;16.20;;;;;;;-0.98;90.46;93358.06;5092330;28;20016;-37
2022/04/21 03:55:55;;;;;;;31.10;17.60;;;;;;;-0.94;89.22;93352.44;5092345;28;20394;-37
2022/04/21 03:58:21;;;;;;;30.65;17.08;;;;;;;-0.81;87.66;93350.09;5092089;28;20028;-37
2022/04/21 04:00:46;;;;;;;30.83;18.52;;;;;;;-0.71;86.90;93356.13;5092290;28;20042;-37
2022/04/21 04:03:12;;;;;;;23.70;14.50;;;;;;;-0.82;87.71;93357.47;5091403;28;20032;-37
2022/04/21 04:05:37;;;;;;;34.90;20.48;;;;;;;-0.74;87.45;93363.22;5092086;28;20078;-37
2022/04/21 04:10:53;;;;;;;23.75;15.10;;;;;;;-0.77;87.42;93356.03;5092318;28;20070;-37
2022/04/21 04:13:19;;;;;;;42.30;25.90;;;;;;;-1.03;88.36;93358.75;5095287;28;20477;-37
2022/04/21 04:15:49;;;;;;;37.15;24.55;;;;;;;-1.15;89.44;93351.69;5091905;28;20445;-37
2022/04/21 04:18:15;;;;;;;29.55;16.73;;;;;;;-1.11;89.97;93354.22;5092168;28;20024;-37
2022/04/21 04:20:41;;;;;;;30.17;20.45;;;;;;;-1.19;90.53;93355.84;5091979;28;20573;-37
2022/04/21 04:23:06;;;;;;;30.25;17.80;;;;;;;-1.23;90.88;93358.00;5091671;28;20020;-37
2022/04/21 04:25:32;;;;;;;21.10;13.45;;;;;;;-1.10;91.50;93350.28;5091765;28;20032;-37
2022/04/21 04:27:57;;;;;;;25.58;12.07;;;;;;;-0.95;91.70;93356.34;5091895;28;20035;-37
2022/04/21 04:30:23;;;;;;;18.17;12.50;;;;;;;-0.91;92.40;93349.50;5091910;28;20020;-37
2022/04/21 04:32:48;;;;;;;19.67;12.88;;;;;;;-0.89;93.16;93351.75;5091615;28;20056;-37
2022/04/21 04:35:14;;;;;;;22.27;13.57;;;;;;;-0.73;93.69;93350.41;5091445;28;20036;-37
2022/04/21 04:37:39;;;;;;;25.48;16.13;;;;;;;-0.47;93.63;93356.56;5107397;28;20027;-38
2022/04/21 04:40:05;;;;;;;25.67;15.93;;;;;;;-0.23;93.82;93351.59;5112011;28;20089;-37
2022/04/21 04:42:31;;;;;;;32.10;18.63;;;;;;;-0.03;93.05;93354.97;5111722;27;20023;-37
2022/04/21 04:47:41;;;;;;;52.63;24.25;;;;;;;0.24;92.31;93334.63;5111929;28;20123;-37
2022/04/21 04:50:07;;;;;;;44.38;24.55;;;;;;;0.41;92.74;93332.03;5111619;28;20077;-37
2022/04/21 04:52:33;;;;;;;39.45;21.88;;;;;;;0.67;92.19;93336.09;5111491;28;20103;-37
2022/04/21 04:54:59;;;;;;;20.23;12.85;;;;;;;0.61;92.83;93301.97;5111814;28;20084;-38
2022/04/21 04:57:24;;;;;;;32.88;17.02;;;;;;;1.00;92.71;93327.31;5111769;28;20484;-37
2022/04/21 04:59:50;;;;;;;35.35;16.42;;;;;;;1.18;92.46;93326.88;5111683;28;20035;-37
2022/04/21 05:02:17;;;;;;;38.65;12.90;;;;;;;1.32;92.06;93327.91;5111698;28;20035;-37
2022/04/21 05:04:42;;;;;;;28.55;12.40;;;;;;;1.46;90.71;93326.91;5111618;28;20031;-38
2022/04/21 05:07:08;;;;;;;96.20;15.60;;;;;;;1.52;90.17;93328.41;5111297;28;20023;-37
2022/04/21 05:09:33;;;;;;;55.55;13.18;;;;;;;1.58;89.34;93330.41;5111528;28;20027;-37
2022/04/21 05:11:59;;;;;;;31.40;15.50;;;;;;;1.60;89.15;93327.94;5111290;28;20026;-37
2022/04/21 05:14:25;;;;;;;38.65;14.02;;;;;;;1.66;88.61;93339.56;5093862;28;20412;-37
2022/04/21 05:16:51;;;;;;;40.15;14.00;;;;;;;1.73;87.68;93339.81;5091067;28;20040;-37
2022/04/21 05:19:21;;;;;;;27.42;15.38;;;;;;;1.77;87.70;93348.47;5090715;28;20463;-37
2022/04/21 05:21:47;;;;;;;48.97;14.55;;;;;;;1.81;86.71;93348.22;5091360;28;20073;-37
2022/04/21 05:24:13;;;;;;;44.60;13.07;;;;;;;1.85;86.50;93349.47;5090654;28;20532;-37
2022/04/21 05:26:40;;;;;;;43.08;14.02;;;;;;;1.97;86.40;93356.38;5090975;28;20024;-37
2022/04/21 05:32:02;;;;;;;41.90;13.90;;;;;;;1.85;84.99;93362.31;5090893;28;20070;-37
2022/04/21 05:34:29;;;;;;;38.47;14.90;;;;;;;1.91;85.92;93368.50;5090933;28;20032;-37
2022/04/21 05:36:55;;;;;;;55.20;17.70;;;;;;;1.96;86.82;93373.97;5090637;28;20024;-37
2022/04/21 05:39:21;;;;;;;43.72;19.27;;;;;;;2.06;86.52;93367.03;5090597;28;20121;-37
2022/04/21 05:41:48;;;;;;;49.05;15.02;;;;;;;1.93;86.22;93363.31;5090728;28;20028;-37
2022/04/21 05:44:14;;;;;;;51.60;20.15;;;;;;;2.05;85.14;93371.00;5090680;28;20027;-37
2022/04/21 05:46:40;;;;;;;63.95;22.83;;;;;;;2.20;85.02;93374.22;5090327;28;20056;-38
2022/04/21 05:49:06;;;;;;;45.80;14.50;;;;;;;2.27;84.60;93375.69;5090700;28;20052;-38
2022/04/21 05:51:32;;;;;;;45.17;19.67;;;;;;;2.28;85.42;93374.44;5090680;28;20024;-38
2022/04/21 05:53:58;;;;;;;60.08;18.48;;;;;;;2.41;85.23;93374.66;5090398;28;20024;-38
2022/04/21 05:56:24;;;;;;;34.03;16.42;;;;;;;2.52;85.04;93366.47;5090311;28;20024;-38
2022/04/21 05:58:50;;;;;;;40.95;14.48;;;;;;;2.49;82.93;93374.91;5090461;28;20028;-37
2022/04/21 06:01:16;;;;;;;43.50;14.80;;;;;;;2.40;83.46;93367.75;5090339;28;20051;-37
2022/04/21 06:03:41;;;;;;;52.47;16.85;;;;;;;2.52;84.50;93371.94;5090154;28;20084;-37
2022/04/21 06:06:09;;;;;;;53.55;17.13;;;;;;;2.68;84.67;93360.25;5090232;28;20027;-38
2022/04/21 06:08:35;;;;;;;42.38;15.88;;;;;;;2.86;86.04;93361.66;5090244;28;20517;-38
2022/04/21 06:11:00;;;;;;;30.17;13.73;;;;;;;3.12;87.15;93355.88;5090113;28;20031;-38
2022/04/21 06:13:26;;;;;;;57.50;14.48;;;;;;;3.20;86.10;93326.81;5093477;28;20043;-38
2022/04/21 06:15:51;;;;;;;45.90;19.33;;;;;;;3.36;82.84;93329.44;5089867;28;20037;-38
2022/04/21 06:18:18;;;;;;;36.70;17.48;;;;;;;3.63;83.88;93344.19;5089210;28;20039;-38
2022/04/21 06:20:46;;;;;;;70.35;23.63;;;;;;;3.74;82.63;93333.94;5090299;28;20103;-38
2022/04/21 06:23:11;;;;;;;67.63;14.85;;;;;;;3.57;78.60;93338.03;5089931;28;20607;-38
2022/04/21 06:25:37;;;;;;;34.35;14.98;;;;;;;3.66;78.95;93332.97;5092120;28;20110;-38
2022/04/21 06:28:03;;;;;;;55.63;18.90;;;;;;;3.77;78.70;93323.97;5094240;28;20024;-38
2022/04/21 06:30:29;;;;;;;57.58;20.20;;;;;;;3.92;77.69;93332.53;5112528;28;20512;-38
2022/04/21 06:32:54;;;;;;;55.90;21.58;;;;;;;3.91;76.17;93322.88;5114286;28;20030;-38
2022/04/21 06:35:20;;;;;;;32.28;16.33;;;;;;;3.90;74.46;93329.56;5114524;28;20024;-38
2022/04/21 06:37:46;;;;;;;25.20;16.55;;;;;;;3.93;75.31;93325.09;5114564;28;20420;-38
2022/04/21 06:40:12;;;;;;;25.15;12.70;;;;;;;4.06;74.23;93323.25;5114031;28;20047;-38
2022/04/21 06:42:38;;;;;;;37.15;16.67;;;;;;;4.32;73.59;93331.72;5114146;28;20083;-38
2022/04/21 06:48:03;;;;;;;29.88;14.52;;;;;;;4.28;71.62;93328.53;5114060;28;20081;-39
2022/04/21 06:50:32;;;;;;;25.08;15.05;;;;;;;4.46;71.35;93330.56;5114357;28;20103;-39
2022/04/21 06:52:58;;;;;;;16.85;11.65;;;;;;;4.76;71.45;93330.53;5113922;28;20019;-39
2022/04/21 06:55:23;;;;;;;19.02;11.90;;;;;;;4.93;71.38;93330.34;5114159;28;20058;-39
2022/04/21 06:57:49;;;;;;;23.92;13.20;;;;;;;4.88;70.21;93320.19;5114122;28;20408;-38
2022/04/21 07:00:17;;;;;;;31.13;15.93;;;;;;;4.97;69.03;93330.78;5114031;28;20054;-38
2022/04/21 07:02:42;;;;;;;28.02;16.55;;;;;;;4.85;70.38;93337.66;5113779;28;20024;-38
2022/04/21 07:05:09;;;;;;;26.98;15.25;;;;;;;5.02;71.36;93336.19;5113649;28;20018;-38
2022/04/21 07:07:36;;;;;;;26.33;14.27;;;;;;;5.18;70.29;93334.50;5113703;28;20027;-38
2022/04/21 07:10:02;;;;;;;25.45;15.55;;;;;;;5.06;71.32;93339.38;5113546;28;20094;-38
2022/04/21 07:12:29;;;;;;;23.92;14.48;;;;;;;5.19;70.40;93346.94;5112398;28;20115;-38
2022/04/21 07:14:56;;;;;;;17.50;12.25;;;;;;;5.10;70.88;93350.03;5092940;28;20105;-38
2022/04/21 07:17:21;;;;;;;18.88;10.23;;;;;;;5.17;70.71;93352.94;5093296;28;20593;-38
2022/04/21 07:19:48;;;;;;;14.38;9.30;;;;;;;5.03;70.27;93356.06;5093315;28;20021;-38
2022/04/21 07:22:14;;;;;;;14.95;10.05;;;;;;;5.25;69.46;93350.34;5092932;28;20024;-38
2022/04/21 07:24:39;;;;;;;16.17;12.35;;;;;;;5.37;67.97;93354.44;5094077;28;20032;-38
2022/04/21 07:27:04;;;;;;;12.73;10.27;;;;;;;5.75;67.81;93350.41;5113292;28;20027;-38
2022/04/21 07:29:30;;;;;;;12.63;8.98;;;;;;;6.28;66.13;93353.38;5113464;28;20030;-38
2022/04/21 07:31:56;;;;;;;12.90;9.70;;;;;;;6.52;66.77;93353.25;5113542;28;20531;-38
2022/04/21 07:34:22;;;;;;;10.88;8.15;;;;;;;6.54;64.70;93358.94;5113338;28;20476;-38
2022/04/21 07:36:48;;;;;;;14.18;8.38;;;;;;;6.59;65.64;93356.09;5112989;28;20022;-38
2022/04/21 07:39:13;;;;;;;11.30;8.32;;;;;;;7.07;65.99;93359.72;5112862;28;20027;-38
2022/04/21 07:41:39;;;;;;;10.38;8.27;;;;;;;7.84;63.24;93368.38;5113011;28;20020;-38
2022/04/21 07:44:04;;;;;;;14.15;8.90;;;;;;;8.09;63.08;93373.06;5112895;28;20493;-38
2022/04/21 07:46:30;;;;;;;11.57;9.43;;;;;;;8.32;59.82;93354.78;5112928;28;20027;-38
2022/04/21 07:51:39;;;;;;;11.52;10.32;;;;;;;9.18;57.58;93361.88;5112898;28;20022;-38
2022/04/21 07:54:05;;;;;;;11.52;10.35;;;;;;;9.76;58.81;93355.72;5112981;28;20020;-38
2022/04/21 07:56:30;;;;;;;10.30;9.20;;;;;;;10.24;53.59;93351.31;5112685;28;20031;-38
2022/04/21 07:58:56;;;;;;;12.15;10.52;;;;;;;10.14;55.11;93351.09;5112800;28;20034;-38
2022/04/21 08:01:21;;;;;;;9.23;8.05;;;;;;;10.03;52.94;93365.19;5112891;28;20680;-38
2022/04/21 08:03:46;;;;;;;12.23;9.85;;;;;;;10.80;53.61;93358.53;5112888;28;20420;-39
2022/04/21 08:06:12;;;;;;;13.38;10.07;;;;;;;10.78;50.56;93367.38;5112800;28;20042;-38
2022/04/21 08:08:40;;;;;;;9.63;8.73;;;;;;;10.27;52.46;93347.44;5112805;28;20027;-38
2022/04/21 08:11:09;;;;;;;9.15;8.25;;;;;;;10.72;53.25;93363.31;5112385;28;20023;-38
2022/04/21 08:13:34;;;;;;;9.05;8.13;;;;;;;11.03;51.86;93373.81;5102402;28;20018;-38
2022/04/21 08:16:00;;;;;;;53.22;23.15;;;;;;;11.76;53.78;93369.28;5091760;28;20139;-38
2022/04/21 08:18:26;;;;;;;10.00;8.50;;;;;;;12.72;50.16;93372.09;5091940;28;20024;-38
2022/04/21 08:20:58;;;;;;;21.98;13.02;;;;;;;13.32;48.74;93370.91;5092674;28;20020;-36
2022/04/21 08:23:26;;;;;;;6.43;5.82;;;;;;;13.62;47.21;93381.69;5112204;28;20096;-38
2022/04/21 08:34:09;;;;;;;6.18;5.57;;;;;;;14.28;44.01;93364.09;5112033;28;20034;-37
2022/04/21 08:36:35;;;;;;;5.25;4.85;;;;;;;14.73;42.52;93373.13;5112164;28;20473;-38
2022/04/21 08:39:00;;;;;;;5.70;5.20;;;;;;;14.70;41.68;93371.53;5111827;28;20092;-37
2022/04/21 08:41:27;;;;;;;7.80;7.10;;;;;;;15.25;43.79;93359.72;5112057;28;20039;-38
2022/04/21 08:43:54;;;;;;;7.85;7.13;;;;;;;14.96;42.51;93356.88;5112039;28;20019;-39
2022/04/21 08:46:25;;;;;;;8.00;6.55;;;;;;;16.16;43.13;93359.56;5112017;28;20020;-38
2022/04/21 08:48:51;;;;;;;6.20;5.60;;;;;;;15.88;39.66;93354.72;5111210;28;20023;-37
2022/04/21 08:51:20;;;;;;;6.03;5.53;;;;;;;16.18;39.82;93350.59;5111661;28;20036;-37
2022/04/21 08:53:45;;;;;;;6.70;6.10;;;;;;;16.45;39.29;93351.91;5111560;28;20073;-37
2022/04/21 08:56:12;;;;;;;6.97;6.28;;;;;;;16.83;37.89;93347.59;5111525;28;20031;-37
2022/04/21 08:58:37;;;;;;;7.95;6.35;;;;;;;16.61;39.03;93347.47;5111383;28;20504;-37
2022/04/21 09:01:03;;;;;;;7.25;6.60;;;;;;;17.00;37.18;93344.59;5111435;28;20024;-37
2022/04/21 09:03:31;;;;;;;7.43;6.60;;;;;;;17.18;36.36;93338.19;5111693;28;20019;-37
2022/04/21 09:05:57;;;;;;;7.55;6.82;;;;;;;16.99;37.94;93331.94;5111693;27;20024;-37
2022/04/21 09:08:26;;;;;;;8.20;6.45;;;;;;;16.66;41.43;93340.88;5111431;28;20134;-37
2022/04/21 09:11:21;;;;;;;6.10;5.60;;;;;;;17.12;41.92;93340.56;5111519;28;20026;-37
2022/04/21 09:13:47;;;;;;;6.10;5.60;;;;;;;17.81;40.86;93334.72;5085256;28;20036;-37
2022/04/21 09:16:13;;;;;;;6.25;5.10;;;;;;;18.11;38.10;93333.91;5090807;28;20529;-37
2022/04/21 09:18:40;;;;;;;5.70;5.15;;;;;;;17.47;36.93;93331.69;5104296;28;20634;-36
2022/04/21 09:21:07;;;;;;;6.00;5.50;;;;;;;16.75;39.76;93324.69;5111148;28;20023;-37
2022/04/21 09:23:33;;;;;;;5.63;4.47;;;;;;;17.49;38.63;93331.84;5111045;28;20028;-37
2022/04/21 09:26:06;;;;;;;5.10;4.30;;;;;;;17.82;38.87;93327.09;5111370;28;20092;-38
2022/04/21 09:28:32;;;;;;;7.60;5.15;;;;;;;17.02;37.58;93330.78;5111079;28;20080;-37
2022/04/21 09:31:00;;;;;;;6.78;5.65;;;;;;;17.44;41.26;93330.84;5111051;28;20019;-37
2022/04/21 09:33:26;;;;;;;5.90;5.40;;;;;;;17.73;39.39;93325.09;5110926;28;20027;-37
2022/04/21 09:35:52;;;;;;;6.13;5.57;;;;;;;17.84;37.96;93321.63;5111137;28;20085;-37
2022/04/21 09:38:18;;;;;;;5.55;4.63;;;;;;;17.27;38.14;93329.03;5110853;28;20028;-37
2022/04/21 09:40:45;;;;;;;6.95;5.95;;;;;;;17.07;39.37;93327.66;5110649;28;20039;-37
2022/04/21 09:43:10;;;;;;;13.85;11.55;;;;;;;17.35;37.57;93326.03;5110842;28;20063;-37
2022/04/21 09:48:28;;;;;;;6.18;5.47;;;;;;;17.37;39.05;93324.13;5111048;28;20073;-37
2022/04/21 09:50:55;;;;;;;6.90;5.53;;;;;;;17.38;40.10;93314.44;5110661;28;20020;-38
2022/04/21 09:53:23;;;;;;;6.25;5.38;;;;;;;17.19;38.96;93311.00;5109772;28;20449;-37
2022/04/21 09:55:50;;;;;;;4.82;4.43;;;;;;;16.80;36.22;93323.66;5110972;28;20023;-37
2022/04/21 09:58:16;;;;;;;4.57;4.13;;;;;;;16.76;36.38;93309.44;5109654;28;20088;-37
2022/04/21 10:00:42;;;;;;;5.60;4.25;;;;;;;15.91;37.41;93312.53;5112846;27;20028;-36
2022/04/21 10:03:08;;;;;;;4.90;4.40;;;;;;;16.34;38.65;93316.28;5114830;28;20034;-36
2022/04/21 10:05:35;;;;;;;5.13;3.67;;;;;;;16.64;36.21;93307.28;5114795;28;20057;-36
2022/04/21 10:08:03;;;;;;;12.50;5.18;;;;;;;16.87;37.76;93314.41;5115108;28;20466;-37
2022/04/21 10:10:29;;;;;;;5.32;4.82;;;;;;;16.92;38.83;93307.75;5115005;27;20408;-37
2022/04/21 10:12:55;;;;;;;6.07;5.50;;;;;;;17.44;38.70;93303.66;5110182;28;20034;-37
2022/04/21 10:15:21;;;;;;;5.57;5.07;;;;;;;17.59;38.02;93296.97;5111567;28;20048;-37
2022/04/21 10:17:47;;;;;;;6.45;4.95;;;;;;;17.44;35.57;93302.91;5114577;28;20527;-37
2022/04/21 10:20:12;;;;;;;6.05;5.55;;;;;;;17.23;39.77;93302.91;5113732;28;20023;-37
2022/04/21 10:22:38;;;;;;;8.80;5.85;;;;;;;17.37;37.37;93301.78;5112740;28;20102;-36
2022/04/21 10:25:06;;;;;;;9.18;6.35;;;;;;;17.88;38.87;93296.75;5114780;28;20039;-37
2022/04/21 10:27:53;;;;;;;7.78;6.70;;;;;;;18.10;37.77;93287.72;5114746;28;20031;-37
2022/04/21 10:30:23;;;;;;;6.47;5.60;;;;;;;18.18;36.93;93285.47;5114426;27;20102;-37
2022/04/21 10:32:57;;;;;;;7.05;5.28;;;;;;;17.61;37.27;93299.88;5113158;28;20111;-37
2022/04/21 10:35:28;;;;;;;10.65;4.57;;;;;;;17.40;38.64;93291.50;5114569;28;20031;-36
2022/04/21 10:38:12;;;;;;;10.77;8.00;;;;;;;17.30;39.73;93293.63;5114282;28;20088;-37
2022/04/21 10:41:06;;;;;;;6.82;5.28;;;;;;;17.34;40.25;93294.63;5114452;28;20408;-37
2022/04/21 10:44:04;;;;;;;7.80;5.78;;;;;;;17.51;40.54;93292.91;5114232;28;20057;-37
2022/04/21 10:46:30;;;;;;;5.43;4.88;;;;;;;17.54;38.72;93294.53;5090780;28;20081;-36
2022/04/21 10:48:58;;;;;;;6.07;4.72;;;;;;;17.87;36.77;93289.69;5114335;28;20031;-36
2022/04/21 10:51:41;;;;;;;12.10;7.90;;;;;;;18.28;38.84;93296.53;5113926;28;20561;-36
2022/04/21 11:00:00;;;;;;;11.68;7.70;;;;;;;19.15;35.16;93280.25;5113800;28;20039;-37
2022/04/21 11:02:38;;;;;;;9.63;5.65;;;;;;;19.26;36.45;93284.38;5113795;28;20511;-37
2022/04/21 11:05:33;;;;;;;6.05;4.45;;;;;;;19.30;32.22;93288.13;5113626;28;20535;-37
2022/04/21 11:08:00;;;;;;;4.72;4.28;;;;;;;18.76;33.73;93271.59;5113757;28;20027;-37
2022/04/21 11:10:38;;;;;;;4.75;4.10;;;;;;;18.18;33.31;93279.88;5105667;28;20093;-37
2022/04/21 11:13:10;;;;;;;4.05;3.58;;;;;;;17.77;35.08;93284.19;5098109;28;20032;-37
2022/04/21 11:15:37;;;;;;;5.50;3.60;;;;;;;17.96;34.64;93278.44;5112201;28;20047;-36
2022/04/21 11:18:18;;;;;;;11.50;4.97;;;;;;;18.19;39.19;93283.41;5113724;28;20047;-37
2022/04/21 11:20:51;;;;;;;9.50;5.70;;;;;;;18.84;36.16;93279.78;5113435;28;20039;-37
2022/04/21 11:23:31;;;;;;;8.00;5.75;;;;;;;18.90;36.56;93272.47;5112164;28;20040;-37
2022/04/21 11:26:07;;;;;;;6.80;5.45;;;;;;;19.11;37.34;93276.47;5112939;28;20420;-37
2022/04/21 11:28:33;;;;;;;4.80;4.07;;;;;;;19.44;36.57;93282.69;5113302;27;20074;-36
2022/04/21 11:31:01;;;;;;;5.30;4.22;;;;;;;19.60;34.61;93272.41;5113527;27;20024;-37
2022/04/21 11:33:26;;;;;;;5.85;5.13;;;;;;;19.21;35.33;93282.69;5113097;28;20481;-37
2022/04/21 11:36:08;;;;;;;8.30;5.40;;;;;;;19.32;36.21;93274.25;5113175;28;20037;-37
2022/04/21 11:38:39;;;;;;;6.28;5.07;;;;;;;19.30;37.06;93287.41;5113076;28;20027;-37
2022/04/21 11:41:07;;;;;;;4.72;4.13;;;;;;;19.50;36.97;93269.75;5113289;28;20110;-37
2022/04/21 11:43:33;;;;;;;8.05;6.30;;;;;;;19.85;38.12;93268.94;5113329;28;20085;-37
2022/04/21 11:46:00;;;;;;;5.20;4.32;;;;;;;19.75;37.73;93269.06;5112879;28;20059;-37
2022/04/21 11:48:33;;;;;;;5.72;4.63;;;;;;;19.95;36.72;93264.63;5112838;28;20505;-37
2022/04/21 11:51:00;;;;;;;7.00;5.22;;;;;;;19.65;37.56;93246.09;5113121;28;20030;-37
2022/04/21 11:53:28;;;;;;;7.13;5.00;;;;;;;19.52;37.23;93275.47;5113042;28;20039;-37
2022/04/21 11:55:54;;;;;;;7.20;5.57;;;;;;;19.28;38.45;93262.81;5113087;28;20457;-37
2022/04/21 11:58:30;;;;;;;6.68;5.63;;;;;;;19.00;37.22;93260.41;5113006;28;20106;-37
2022/04/21 12:06:38;;;;;;;6.95;3.55;;;;;;;17.67;39.50;93266.06;5105819;28;20129;-37
2022/04/21 12:09:07;;;;;;;4.95;3.88;;;;;;;17.12;40.02;93265.22;5092072;28;20485;-37
2022/04/21 12:11:33;;;;;;;;;;;;;;;16.84;40.69;93260.53;5092971;28;20020;-37
2022/04/21 12:13:59;;;;;;;4.82;3.20;;;;;;;16.56;40.37;93259.34;5104675;28;20445;-37
2022/04/21 12:16:36;;;;;;;3.45;2.30;;;;;;;16.35;42.46;93256.44;5112247;28;20051;-37